createdAt,value
2018-07-13T00:01:31.249Z,99443.00
2018-07-13T00:04:02.364Z,99447.00
2018-07-13T00:06:33.378Z,99441.00
2018-07-13T00:09:05.129Z,99447.00
2018-07-13T00:11:36.193Z,99444.00
2018-07-13T00:14:16.330Z,99445.00
2018-07-13T00:16:47.954Z,99443.00
2018-07-13T00:19:18.864Z,99443.00
2018-07-13T00:21:51.217Z,99440.00
2018-07-13T00:24:22.581Z,99440.00
2018-07-13T00:26:53.829Z,99441.00
2018-07-13T00:29:24.695Z,99444.00
2018-07-13T00:31:56.046Z,99441.00
2018-07-13T00:34:27.645Z,99439.00
2018-07-13T00:36:58.684Z,99436.00
2018-07-13T00:39:29.509Z,99440.00
2018-07-13T00:42:00.854Z,99439.00
2018-07-13T00:44:32.349Z,99439.00
2018-07-13T00:47:03.948Z,99446.00
2018-07-13T00:49:35.347Z,99441.00
2018-07-13T00:52:07.258Z,99443.00
2018-07-13T00:54:38.171Z,99444.00
2018-07-13T00:57:09.372Z,99444.00
2018-07-13T00:59:41.012Z,99447.00
2018-07-13T01:02:12.287Z,99444.00
2018-07-13T01:04:43.907Z,99448.00
2018-07-13T01:07:15.509Z,99443.00
2018-07-13T01:09:45.723Z,99445.00
2018-07-13T01:12:16.854Z,99444.00
2018-07-13T01:14:47.705Z,99443.00
2018-07-13T01:17:19.897Z,99443.00
2018-07-13T01:19:50.866Z,99448.00
2018-07-13T01:22:22.269Z,99445.00
2018-07-13T01:24:53.416Z,99442.00
2018-07-13T01:27:29.182Z,99447.00
2018-07-13T01:30:00.341Z,99441.00
2018-07-13T01:32:30.645Z,99438.00
2018-07-13T01:35:01.610Z,99443.00
2018-07-13T01:37:32.852Z,99445.00
2018-07-13T01:40:03.820Z,99440.00
2018-07-13T01:42:35.143Z,99442.00
2018-07-13T01:45:06.368Z,99439.00
2018-07-13T01:47:37.323Z,99445.00
2018-07-13T01:50:08.736Z,99443.00
2018-07-13T01:52:39.339Z,99439.00
2018-07-13T01:55:10.238Z,99441.00
2018-07-13T01:57:40.992Z,99438.00
2018-07-13T02:00:11.756Z,99433.00
2018-07-13T02:02:43.173Z,99434.00
2018-07-13T02:05:14.285Z,99432.00
2018-07-13T02:07:45.461Z,99439.00
2018-07-13T02:10:16.585Z,99442.00
2018-07-13T02:12:48.125Z,99441.00
2018-07-13T02:15:19.125Z,99440.00
2018-07-13T02:17:50.566Z,99439.00
2018-07-13T02:20:22.473Z,99440.00
2018-07-13T02:22:54.122Z,99440.00
2018-07-13T02:25:25.030Z,99440.00
2018-07-13T02:27:56.763Z,99438.00
2018-07-13T02:30:28.182Z,99434.00
2018-07-13T02:32:59.154Z,99437.00
2018-07-13T02:35:29.354Z,99443.00
2018-07-13T02:38:00.382Z,99447.00
2018-07-13T02:40:31.068Z,99448.00
2018-07-13T02:43:02.263Z,99446.00
2018-07-13T02:45:33.589Z,99457.00
2018-07-13T02:48:04.737Z,99453.00
2018-07-13T02:50:36.336Z,99458.00
2018-07-13T02:53:07.600Z,99451.00
2018-07-13T02:55:38.849Z,99453.00
2018-07-13T02:58:10.201Z,99447.00
2018-07-13T03:00:41.626Z,99448.00
2018-07-13T03:03:12.274Z,99442.00
2018-07-13T03:05:42.717Z,99445.00
2018-07-13T03:08:13.044Z,99440.00
2018-07-13T03:10:44.248Z,99430.00
2018-07-13T03:13:15.508Z,99437.00
2018-07-13T03:15:46.785Z,99437.00
2018-07-13T03:18:18.173Z,99435.00
2018-07-13T03:20:49.162Z,99434.00
2018-07-13T03:23:20.669Z,99435.00
2018-07-13T03:25:52.072Z,99441.00
2018-07-13T03:28:22.786Z,99445.00
2018-07-13T03:30:54.072Z,99439.00
2018-07-13T03:33:25.505Z,99439.00
2018-07-13T03:35:56.672Z,99437.00
2018-07-13T03:38:28.599Z,99439.00
2018-07-13T03:40:59.526Z,99443.00
2018-07-13T03:43:29.766Z,99443.00
2018-07-13T03:46:00.995Z,99445.00
2018-07-13T03:48:32.104Z,99441.00
2018-07-13T03:51:03.053Z,99441.00
2018-07-13T03:53:34.560Z,99438.00
2018-07-13T03:56:05.296Z,99443.00
2018-07-13T03:58:36.444Z,99436.00
2018-07-13T04:01:07.558Z,99443.00
2018-07-13T04:03:38.167Z,99436.00
2018-07-13T04:06:09.325Z,99439.00
2018-07-13T04:08:40.739Z,99444.00
2018-07-13T04:11:12.231Z,99442.00
2018-07-13T04:13:42.465Z,99444.00
2018-07-13T04:16:13.574Z,99440.00
2018-07-13T04:18:44.614Z,99439.00
2018-07-13T04:21:16.311Z,99433.00
2018-07-13T04:23:46.905Z,99443.00
2018-07-13T04:26:17.926Z,99447.00
2018-07-13T04:28:49.098Z,99450.00
2018-07-13T04:31:20.305Z,99450.00
2018-07-13T04:33:51.641Z,99448.00
2018-07-13T04:36:22.864Z,99447.00
2018-07-13T04:38:54.159Z,99452.00
2018-07-13T04:41:25.294Z,99449.00
2018-07-13T04:43:56.657Z,99447.00
2018-07-13T04:46:26.925Z,99446.00
2018-07-13T04:48:58.055Z,99446.00
2018-07-13T04:51:28.928Z,99446.00
2018-07-13T04:54:00.770Z,99443.00
2018-07-13T04:56:31.937Z,99445.00
2018-07-13T04:59:03.480Z,99444.00
2018-07-13T05:01:34.819Z,99442.00
2018-07-13T05:04:05.957Z,99441.00
2018-07-13T05:06:37.937Z,99438.00
2018-07-13T05:09:09.369Z,99441.00
2018-07-13T05:11:40.635Z,99444.00
2018-07-13T05:14:11.933Z,99445.00
2018-07-13T05:16:42.822Z,99446.00
2018-07-13T05:19:14.502Z,99448.00
2018-07-13T05:21:46.103Z,99439.00
2018-07-13T05:24:17.964Z,99445.00
2018-07-13T05:26:49.530Z,99447.00
2018-07-13T05:29:20.997Z,99446.00
2018-07-13T05:31:51.204Z,99445.00
2018-07-13T05:34:22.800Z,99447.00
2018-07-13T05:36:53.715Z,99453.00
2018-07-13T05:39:25.210Z,99444.00
2018-07-13T05:41:56.778Z,99445.00
2018-07-13T05:44:28.094Z,99445.00
2018-07-13T05:46:59.807Z,99445.00
2018-07-13T05:49:29.746Z,99441.00
2018-07-13T05:52:00.118Z,99443.00
2018-07-13T05:54:31.340Z,99442.00
2018-07-13T05:57:02.162Z,99443.00
2018-07-13T05:59:33.365Z,99446.00
2018-07-13T06:02:05.041Z,99443.00
2018-07-13T06:04:36.312Z,99438.00
2018-07-13T06:07:07.662Z,99439.00
2018-07-13T06:09:39.290Z,99439.00
2018-07-13T06:12:09.597Z,99431.00
2018-07-13T06:14:41.204Z,99424.00
2018-07-13T06:17:11.868Z,99424.00
2018-07-13T06:19:43.540Z,99425.00
2018-07-13T06:22:14.715Z,99431.00
2018-07-13T06:24:46.117Z,99424.00
2018-07-13T06:27:17.361Z,99424.00
2018-07-13T06:29:47.625Z,99420.00
2018-07-13T06:32:19.125Z,99424.00
2018-07-13T06:34:50.397Z,99427.00
2018-07-13T06:37:21.428Z,99423.00
2018-07-13T06:39:53.249Z,99420.00
2018-07-13T06:42:25.191Z,99408.00
2018-07-13T06:44:56.405Z,99410.00
2018-07-13T06:47:27.686Z,99424.00
2018-07-13T06:49:59.103Z,99423.00
2018-07-13T06:52:29.410Z,99420.00
2018-07-13T06:55:00.835Z,99413.00
2018-07-13T06:57:42.510Z,99410.00
2018-07-13T07:00:58.401Z,99414.00
2018-07-13T07:03:30.139Z,99410.00
2018-07-13T07:06:02.808Z,99408.00
2018-07-13T07:08:33.877Z,99405.00
2018-07-13T07:11:04.052Z,99401.00
2018-07-13T07:13:39.208Z,99396.00
2018-07-13T07:16:10.484Z,99397.00
2018-07-13T07:18:41.831Z,99396.00
2018-07-13T07:21:12.262Z,99394.00
2018-07-13T07:23:43.187Z,99393.00
2018-07-13T07:26:13.436Z,99388.00
2018-07-13T07:28:43.430Z,99391.00
2018-07-13T07:31:13.485Z,99391.00
2018-07-13T07:33:44.521Z,99394.00
2018-07-13T07:36:16.031Z,99392.00
2018-07-13T07:38:47.364Z,99395.00
2018-07-13T07:41:18.995Z,99393.00
2018-07-13T07:43:50.797Z,99394.00
2018-07-13T07:46:22.585Z,99391.00
2018-07-13T07:48:54.883Z,99387.00
2018-07-13T07:51:26.518Z,99381.00
2018-07-13T07:53:58.220Z,99385.00
2018-07-13T07:56:29.206Z,99381.00
2018-07-13T07:59:00.825Z,99392.00
2018-07-13T08:01:31.647Z,99391.00
2018-07-13T08:04:02.132Z,99386.00
2018-07-13T08:06:33.893Z,99389.00
2018-07-13T08:09:06.883Z,99386.00
2018-07-13T08:11:38.125Z,99385.00
2018-07-13T08:14:10.471Z,99384.00
2018-07-13T08:16:41.818Z,99391.00
2018-07-13T08:19:13.346Z,99385.00
2018-07-13T08:21:45.197Z,99377.00
2018-07-13T08:24:22.301Z,99377.00
2018-07-13T08:26:58.965Z,99371.00
2018-07-13T08:29:33.428Z,99375.00
2018-07-13T08:32:04.044Z,99371.00
2018-07-13T08:34:36.053Z,99370.00
2018-07-13T08:37:06.568Z,99376.00
2018-07-13T08:39:38.127Z,99372.00
2018-07-13T08:42:09.544Z,99366.00
2018-07-13T08:44:41.652Z,99363.00
2018-07-13T08:47:13.271Z,99373.00
2018-07-13T08:49:44.646Z,99363.00
2018-07-13T08:52:15.889Z,99367.00
2018-07-13T08:54:46.993Z,99366.00
2018-07-13T08:57:17.275Z,99371.00
2018-07-13T08:59:47.821Z,99366.00
2018-07-13T09:02:19.188Z,99364.00
2018-07-13T09:04:50.132Z,99362.00
2018-07-13T09:07:21.528Z,99362.00
2018-07-13T09:09:52.490Z,99360.00
2018-07-13T09:12:23.721Z,99358.00
2018-07-13T09:14:55.571Z,99360.00
2018-07-13T09:17:26.369Z,99353.00
2018-07-13T09:19:57.660Z,99360.00
2018-07-13T09:22:28.526Z,99352.00
2018-07-13T09:24:59.889Z,99357.00
2018-07-13T09:27:30.940Z,99356.00
2018-07-13T09:30:01.881Z,99349.00
2018-07-13T09:32:33.029Z,99347.00
2018-07-13T09:35:03.858Z,99345.00
2018-07-13T09:37:34.955Z,99341.00
2018-07-13T09:40:05.642Z,99342.00
2018-07-13T09:42:37.186Z,99335.00
2018-07-13T09:45:08.408Z,99338.00
2018-07-13T09:47:39.632Z,99337.00
2018-07-13T09:50:11.323Z,99334.00
2018-07-13T09:52:42.867Z,99325.00
2018-07-13T09:55:13.981Z,99308.00
2018-07-13T09:57:45.575Z,99310.00
2018-07-13T10:00:16.815Z,99316.00
2018-07-13T10:02:48.835Z,99314.00
2018-07-13T10:05:19.242Z,99306.00
2018-07-13T10:07:51.129Z,99308.00
2018-07-13T10:10:22.849Z,99305.00
2018-07-13T10:12:54.513Z,99297.00
2018-07-13T10:15:26.123Z,99299.00
2018-07-13T10:17:58.274Z,99300.00
2018-07-13T10:20:29.290Z,99295.00
2018-07-13T10:23:00.920Z,99294.00
2018-07-13T10:25:32.851Z,99286.00
2018-07-13T10:28:04.807Z,99284.00
2018-07-13T10:30:38.008Z,99276.00
2018-07-13T10:33:09.769Z,99271.00
2018-07-13T10:35:41.913Z,99266.00
2018-07-13T10:38:13.806Z,99266.00
2018-07-13T10:40:45.265Z,99266.00
2018-07-13T10:43:16.365Z,99265.00
2018-07-13T10:45:48.168Z,99269.00
2018-07-13T10:48:20.319Z,99273.00
2018-07-13T10:50:51.830Z,99262.00
2018-07-13T10:53:24.486Z,99262.00
2018-07-13T10:55:56.333Z,99255.00
2018-07-13T10:58:28.315Z,99251.00
2018-07-13T11:00:59.796Z,99245.00
2018-07-13T11:03:31.504Z,99250.00
2018-07-13T11:06:03.177Z,99245.00
2018-07-13T11:08:34.744Z,99243.00
2018-07-13T11:11:06.401Z,99242.00
2018-07-13T11:13:37.001Z,99243.00
2018-07-13T11:16:08.851Z,99236.00
2018-07-13T11:18:40.814Z,99228.00
2018-07-13T11:21:12.796Z,99228.00
2018-07-13T11:23:44.444Z,99225.00
2018-07-13T11:26:15.711Z,99223.00
2018-07-13T11:28:47.335Z,99220.00
2018-07-13T11:31:18.751Z,99216.00
2018-07-13T11:33:50.521Z,99210.00
2018-07-13T11:36:22.442Z,99213.00
2018-07-13T11:38:52.678Z,99194.00
2018-07-13T11:41:24.069Z,99205.00
2018-07-13T11:43:56.247Z,99197.00
2018-07-13T11:46:27.541Z,99189.00
2018-07-13T11:48:59.451Z,99183.00
2018-07-13T11:51:30.613Z,99177.00
2018-07-13T11:54:01.639Z,99188.00
2018-07-13T11:56:32.079Z,99196.00
2018-07-13T11:59:03.056Z,99199.00
2018-07-13T12:01:34.330Z,99190.00
2018-07-13T12:04:05.402Z,99196.00
2018-07-13T12:06:35.643Z,99189.00
2018-07-13T12:09:07.041Z,99180.00
2018-07-13T12:11:38.474Z,99187.00
2018-07-13T12:14:09.625Z,99184.00
2018-07-13T12:16:41.123Z,99179.00
2018-07-13T12:19:12.397Z,99179.00
2018-07-13T12:21:44.141Z,99178.00
2018-07-13T12:24:14.487Z,99180.00
2018-07-13T12:26:45.745Z,99188.00
2018-07-13T12:29:17.039Z,99187.00
2018-07-13T12:31:48.282Z,99186.00
2018-07-13T12:34:19.275Z,99184.00
2018-07-13T12:36:50.009Z,99198.00
2018-07-13T12:39:21.402Z,99192.00
2018-07-13T12:41:52.228Z,99191.00
2018-07-13T12:44:23.392Z,99204.00
2018-07-13T12:46:54.637Z,99201.00
2018-07-13T12:49:25.938Z,99199.00
2018-07-13T12:51:56.848Z,99196.00
2018-07-13T12:54:28.316Z,99199.00
2018-07-13T12:56:59.409Z,99197.00
2018-07-13T12:59:30.846Z,99187.00
2018-07-13T13:02:02.348Z,99179.00
2018-07-13T13:04:33.648Z,99178.00
2018-07-13T13:07:05.111Z,99176.00
2018-07-13T13:09:37.048Z,99182.00
2018-07-13T13:12:09.158Z,99191.00
2018-07-13T13:14:40.940Z,99213.00
2018-07-13T13:17:12.775Z,99248.00
2018-07-13T13:19:44.751Z,99271.00
2018-07-13T13:22:16.117Z,99256.00
2018-07-13T13:24:47.668Z,99261.00
2018-07-13T13:27:20.249Z,99255.00
2018-07-13T13:29:50.581Z,99250.00
2018-07-13T13:32:20.961Z,99253.00
2018-07-13T13:34:51.338Z,99247.00
2018-07-13T13:37:22.106Z,99260.00
2018-07-13T13:39:52.369Z,99261.00
2018-07-13T13:42:23.022Z,99266.00
2018-07-13T13:44:52.935Z,99262.00
2018-07-13T13:47:23.131Z,99260.00
2018-07-13T13:49:54.429Z,99257.00
2018-07-13T13:52:24.662Z,99245.00
2018-07-13T13:54:55.086Z,99237.00
2018-07-13T13:57:26.131Z,99237.00
2018-07-13T13:59:57.331Z,99229.00
2018-07-13T14:02:27.918Z,99237.00
2018-07-13T14:04:57.959Z,99241.00
2018-07-13T14:07:28.092Z,99243.00
2018-07-13T14:09:58.519Z,99243.00
2018-07-13T14:12:29.086Z,99244.00
2018-07-13T14:14:59.317Z,99240.00
2018-07-13T14:17:29.496Z,99227.00
2018-07-13T14:19:59.717Z,99230.00
2018-07-13T14:22:30.112Z,99232.00
2018-07-13T14:25:00.389Z,99242.00
2018-07-13T14:27:30.407Z,99257.00
2018-07-13T14:30:00.688Z,99259.00
2018-07-13T14:32:30.850Z,99258.00
2018-07-13T14:35:01.207Z,99248.00
2018-07-13T14:37:31.296Z,99253.00
2018-07-13T14:40:01.596Z,99249.00
2018-07-13T14:42:31.834Z,99264.00
2018-07-13T14:45:02.225Z,99253.00
2018-07-13T14:47:32.505Z,99263.00
2018-07-13T14:50:02.632Z,99257.00
2018-07-13T14:52:32.938Z,99253.00
2018-07-13T14:55:03.164Z,99249.00
2018-07-13T14:57:33.451Z,99257.00
2018-07-13T15:00:03.489Z,99261.00
2018-07-13T15:02:33.786Z,99246.00
2018-07-13T15:05:03.988Z,99241.00
2018-07-13T15:07:34.278Z,99233.00
2018-07-13T15:10:04.586Z,99237.00
2018-07-13T15:12:35.569Z,99235.00
2018-07-13T15:15:05.922Z,99235.00
2018-07-13T15:17:36.058Z,99234.00
2018-07-13T15:20:06.398Z,99231.00
2018-07-13T15:22:36.592Z,99230.00
2018-07-13T15:25:06.877Z,99224.00
2018-07-13T15:27:38.826Z,99219.00
2018-07-13T15:30:10.131Z,99225.00
2018-07-13T15:32:40.270Z,99214.00
2018-07-13T15:35:10.443Z,99215.00
2018-07-13T15:37:40.994Z,99213.00
2018-07-13T15:40:11.346Z,99213.00
2018-07-13T15:42:41.993Z,99213.00
2018-07-13T15:45:12.415Z,99207.00
2018-07-13T15:47:42.971Z,99220.00
2018-07-13T15:50:13.451Z,99218.00
2018-07-13T15:52:43.727Z,99222.00
2018-07-13T15:55:13.930Z,99214.00
2018-07-13T15:57:44.296Z,99216.00
2018-07-13T16:00:14.414Z,99214.00
2018-07-13T16:02:44.963Z,99223.00
2018-07-13T16:05:15.120Z,99222.00
2018-07-13T16:07:45.376Z,99211.00
2018-07-13T16:10:15.670Z,99218.00
2018-07-13T16:12:45.879Z,99230.00
2018-07-13T16:15:16.163Z,99227.00
2018-07-13T16:17:46.543Z,99222.00
2018-07-13T16:20:16.682Z,99220.00
2018-07-13T16:22:47.041Z,99207.00
2018-07-13T16:25:17.477Z,99214.00
2018-07-13T16:27:47.746Z,99221.00
2018-07-13T16:30:18.116Z,99223.00
2018-07-13T16:32:48.545Z,99230.00
2018-07-13T16:35:18.917Z,99224.00
2018-07-13T16:37:49.321Z,99224.00
2018-07-13T16:40:19.504Z,99219.00
2018-07-13T16:42:49.976Z,99231.00
2018-07-13T16:45:20.320Z,99231.00
2018-07-13T16:47:51.056Z,99231.00
2018-07-13T16:50:21.861Z,99230.00
2018-07-13T16:52:52.537Z,99231.00
2018-07-13T16:55:23.002Z,99232.00
2018-07-13T16:57:53.325Z,99231.00
2018-07-13T17:00:23.748Z,99237.00
2018-07-13T17:02:54.032Z,99242.00
2018-07-13T17:05:24.584Z,99240.00
2018-07-13T17:07:54.844Z,99248.00
2018-07-13T17:10:25.087Z,99247.00
2018-07-13T17:12:55.338Z,99249.00
2018-07-13T17:15:25.780Z,99248.00
2018-07-13T17:17:56.086Z,99252.00
2018-07-13T17:20:27.124Z,99255.00
2018-07-13T17:22:57.961Z,99256.00
2018-07-13T17:25:29.527Z,99256.00
2018-07-13T17:28:01.039Z,99261.00
2018-07-13T17:30:32.641Z,99261.00
2018-07-13T17:33:04.282Z,99261.00
2018-07-13T17:35:35.602Z,99261.00
2018-07-13T17:38:07.180Z,99259.00
2018-07-13T17:40:37.739Z,99260.00
2018-07-13T17:43:08.184Z,99263.00
2018-07-13T17:45:39.165Z,99265.00
2018-07-13T17:48:09.616Z,99271.00
2018-07-13T17:50:39.942Z,99269.00
2018-07-13T17:53:10.047Z,99267.00
2018-07-13T17:55:40.284Z,99272.00
2018-07-13T17:58:10.630Z,99271.00
2018-07-13T18:00:41.692Z,99275.00
2018-07-13T18:03:12.989Z,99283.00
2018-07-13T18:05:48.852Z,99285.00
2018-07-13T18:08:24.605Z,99288.00
2018-07-13T18:11:02.255Z,99290.00
2018-07-13T18:13:35.766Z,99293.00
2018-07-13T18:16:09.769Z,99298.00
2018-07-13T18:18:39.950Z,99296.00
2018-07-13T18:21:10.376Z,99302.00
2018-07-13T18:23:40.584Z,99309.00
2018-07-13T18:26:10.798Z,99310.00
2018-07-13T18:28:41.061Z,99312.00
2018-07-13T18:31:11.377Z,99315.00
2018-07-13T18:33:41.994Z,99322.00
2018-07-13T18:36:12.532Z,99326.00
2018-07-13T18:38:43.305Z,99328.00
2018-07-13T18:41:14.321Z,99331.00
2018-07-13T18:43:46.300Z,99335.00
2018-07-13T18:46:17.853Z,99337.00
2018-07-13T18:48:49.657Z,99341.00
2018-07-13T18:51:21.508Z,99346.00
2018-07-13T18:53:51.951Z,99346.00
2018-07-13T19:03:10.777Z,99358.00
2018-07-13T19:05:41.099Z,99366.00
2018-07-13T19:08:11.322Z,99366.00
2018-07-13T19:10:41.505Z,99374.00
2018-07-13T19:13:11.878Z,99376.00
2018-07-13T19:15:42.336Z,99383.00
2018-07-13T19:18:12.648Z,99379.00
2018-07-13T19:20:42.977Z,99383.00
2018-07-13T19:23:13.275Z,99386.00
2018-07-13T19:25:43.611Z,99381.00
2018-07-13T19:28:13.772Z,99381.00
2018-07-13T19:30:44.087Z,99383.00
2018-07-13T19:33:14.264Z,99386.00
2018-07-13T19:35:44.398Z,99389.00
2018-07-13T19:38:14.731Z,99394.00
2018-07-13T19:40:44.923Z,99397.00
2018-07-13T19:43:15.164Z,99402.00
2018-07-13T19:45:45.185Z,99406.00
2018-07-13T19:48:15.540Z,99412.00
2018-07-13T19:50:46.267Z,99422.00
2018-07-13T19:53:17.270Z,99418.00
2018-07-13T19:55:48.218Z,99421.00
2018-07-13T19:58:19.967Z,99418.00
2018-07-13T20:00:50.952Z,99424.00
2018-07-13T20:03:22.798Z,99421.00
2018-07-13T20:05:54.111Z,99418.00
2018-07-13T20:08:25.504Z,99421.00
2018-07-13T20:10:56.578Z,99422.00
2018-07-13T20:13:27.409Z,99426.00
2018-07-13T20:15:58.594Z,99419.00
2018-07-13T20:18:29.656Z,99425.00
2018-07-13T20:21:00.985Z,99424.00
2018-07-13T20:23:32.197Z,99426.00
2018-07-13T20:26:03.444Z,99430.00
2018-07-13T20:28:35.298Z,99424.00
2018-07-13T20:31:06.416Z,99426.00
2018-07-13T20:33:37.819Z,99431.00
2018-07-13T20:36:09.005Z,99435.00
2018-07-13T20:38:40.420Z,99444.00
2018-07-13T20:41:11.741Z,99443.00
2018-07-13T20:43:43.239Z,99448.00
2018-07-13T20:46:14.428Z,99446.00
2018-07-13T20:48:45.326Z,99438.00
2018-07-13T20:51:16.557Z,99437.00
2018-07-13T20:53:47.905Z,99438.00
2018-07-13T20:56:22.128Z,99437.00
2018-07-13T20:58:53.457Z,99441.00
2018-07-13T21:01:24.831Z,99443.00
2018-07-13T21:03:56.313Z,99439.00
2018-07-13T21:06:27.938Z,99439.00
2018-07-13T21:08:59.819Z,99439.00
2018-07-13T21:11:31.176Z,99434.00
2018-07-13T21:14:02.770Z,99434.00
2018-07-13T21:16:34.055Z,99432.00
2018-07-13T21:19:05.539Z,99428.00
2018-07-13T21:21:36.580Z,99427.00
2018-07-13T21:24:07.914Z,99419.00
2018-07-13T21:26:38.550Z,99418.00
2018-07-13T21:29:09.846Z,99426.00
2018-07-13T21:31:41.183Z,99430.00
2018-07-13T21:34:12.701Z,99426.00
2018-07-13T21:36:44.324Z,99430.00
2018-07-13T21:39:16.045Z,99436.00
2018-07-13T21:41:47.767Z,99426.00
2018-07-13T21:44:19.296Z,99427.00
2018-07-13T21:46:51.185Z,99423.00
2018-07-13T21:49:23.004Z,99420.00
2018-07-13T21:51:53.766Z,99422.00
2018-07-13T21:54:25.513Z,99420.00
2018-07-13T21:56:56.708Z,99421.00
2018-07-13T21:59:27.780Z,99423.00
2018-07-13T22:01:58.838Z,99426.00
2018-07-13T22:04:30.089Z,99425.00
2018-07-13T22:07:00.533Z,99421.00
2018-07-13T22:09:32.039Z,99423.00
2018-07-13T22:12:03.194Z,99428.00
2018-07-13T22:14:34.386Z,99424.00
2018-07-13T22:17:06.032Z,99421.00
2018-07-13T22:19:37.258Z,99420.00
2018-07-13T22:22:07.788Z,99412.00
2018-07-13T22:24:39.111Z,99418.00
2018-07-13T22:27:10.566Z,99418.00
2018-07-13T22:29:42.145Z,99415.00
2018-07-13T22:32:13.319Z,99409.00
2018-07-13T22:34:44.474Z,99409.00
2018-07-13T22:37:15.664Z,99409.00
2018-07-13T22:39:46.884Z,99410.00
2018-07-13T22:42:18.173Z,99409.00
2018-07-13T22:44:49.374Z,99410.00
2018-07-13T22:47:20.279Z,99403.00
2018-07-13T22:49:51.297Z,99409.00
2018-07-13T22:52:22.971Z,99404.00
2018-07-13T22:54:53.996Z,99407.00
2018-07-13T22:57:25.379Z,99402.00
2018-07-13T22:59:56.813Z,99398.00
2018-07-13T23:02:27.439Z,99396.00
2018-07-13T23:04:58.751Z,99401.00
2018-07-13T23:07:30.647Z,99397.00
2018-07-13T23:10:01.484Z,99406.00
2018-07-13T23:12:32.648Z,99409.00
2018-07-13T23:15:04.972Z,99411.00
2018-07-13T23:17:36.058Z,99418.00
2018-07-13T23:20:07.382Z,99420.00
2018-07-13T23:22:38.891Z,99422.00
2018-07-13T23:25:10.189Z,99416.00
2018-07-13T23:27:41.849Z,99415.00
2018-07-13T23:30:12.944Z,99417.00
2018-07-13T23:32:43.626Z,99411.00
2018-07-13T23:35:14.900Z,99406.00
2018-07-13T23:37:46.285Z,99406.00
2018-07-13T23:40:17.797Z,99404.00
2018-07-13T23:42:49.060Z,99404.00
2018-07-13T23:45:20.357Z,99401.00
2018-07-13T23:47:50.928Z,99402.00
2018-07-13T23:50:22.455Z,99406.00
2018-07-13T23:52:53.816Z,99399.00
2018-07-13T23:55:24.834Z,99396.00
2018-07-13T23:57:55.556Z,99396.00
